Center Line, MI

5:58 PM EST on February 01, 2015 (GMT -0500)
Fitzgerald | Change Station
CLOSE
Current Station
Personal Weather Station
Location: Warren, MI
Elevation: 636 ft
Nearby Weather Stations

Elev 636 ft 42.45 °N, 83.06 °W | Updated 5 minutes ago

Snow
Snow
19.4 °F
Feels Like 10 °F
N
6.8
Wind Variable Wind from East

Today
High -- | Low -- °F
--% Chance of Precip.
Yesterday
High -- | Low -- °F
Precip. -- in
7:46 AM 5:45 PM
Waxing Gibbous, 96% visible
Pressure 29.86 in
Visibility 0.5 miles
Clouds
Windchill 10 °F
Dew Point 19 °F
Humidity 97%
Rainfall 0.00 in
Snow Depth Not available.
UV Not available.
Pollen .10 out of 12
Air Quality Not available.
Flu Activity Not available.
METAR KDET 012253Z AUTO 06013G21KT 1/2SM SN VV011 M06/M09 A2984 RMK AO2 SLP111 P0001 T10611089

More Conditions Fewer Conditions

Pressure 29.86 in
Visibility 0.5 miles
Clouds
Windchill 10 °F
Dew Point 19 °F
Humidity 97%
Rainfall 0.00 in
Snow Depth Not available.
UV Not available.
Pollen .10 out of 12
Air Quality Not available.
Flu Activity Not available.
METAR KDET 012253Z AUTO 06013G21KT 1/2SM SN VV011 M06/M09 A2984 RMK AO2 SLP111 P0001 T10611089

More Conditions Fewer Conditions

10-Day Weather Forecast

Almanac

Astronomy

Feb. 01, 2015 Rise Set
Actual Time
Civil Twilight
Nautical Twilight
Astronomical Twilight
Moon
Length of Visible Light
Length of Day
Tomorrow will be .
, % of the Moon is Illuminated

Today's Extremes

State Highs State Lows

Community

WunderPhotos

Upload Photos

1,792,581 photos uploaded!

WunderBlogs® & News

Nearby

Air Quality

  Air Quality AQ Index Pollutant
Not available.

Snow Depth

Station Depth Elevation

Earthquake Activity

City Distance Mag. Time & Date
Minimum magnitude displayed is 2.5.

Coastal Water Temperatures

Place Temperature

Nearby Weather Stations